sensor_id;sensor_type;location;lat;lon;timestamp;P1;durP1;ratioP1;P2;durP2;ratioP2
74523;SDS011;63074;44.696;10.358;2023-04-30T00:01:23;29.95;;;21.88;;
74523;SDS011;63074;44.696;10.358;2023-04-30T00:03:49;30.77;;;20.95;;
74523;SDS011;63074;44.696;10.358;2023-04-30T00:06:15;28.33;;;21.05;;
74523;SDS011;63074;44.696;10.358;2023-04-30T00:08:41;27.10;;;20.30;;
74523;SDS011;63074;44.696;10.358;2023-04-30T00:11:07;27.73;;;21.05;;
74523;SDS011;63074;44.696;10.358;2023-04-30T00:13:33;27.35;;;20.58;;
74523;SDS011;63074;44.696;10.358;2023-04-30T00:16:00;27.60;;;19.25;;
74523;SDS011;63074;44.696;10.358;2023-04-30T00:18:26;28.00;;;20.92;;
74523;SDS011;63074;44.696;10.358;2023-04-30T00:20:52;32.53;;;21.88;;
74523;SDS011;63074;44.696;10.358;2023-04-30T00:23:18;29.65;;;21.38;;
74523;SDS011;63074;44.696;10.358;2023-04-30T00:25:45;32.80;;;22.63;;
74523;SDS011;63074;44.696;10.358;2023-04-30T00:28:11;30.35;;;21.83;;
74523;SDS011;63074;44.696;10.358;2023-04-30T00:30:37;29.42;;;21.65;;
74523;SDS011;63074;44.696;10.358;2023-04-30T00:33:03;29.85;;;21.58;;
74523;SDS011;63074;44.696;10.358;2023-04-30T00:35:29;32.05;;;22.20;;
74523;SDS011;63074;44.696;10.358;2023-04-30T00:37:55;32.17;;;21.00;;
74523;SDS011;63074;44.696;10.358;2023-04-30T00:40:22;32.55;;;22.10;;
74523;SDS011;63074;44.696;10.358;2023-04-30T00:42:48;34.10;;;23.08;;
74523;SDS011;63074;44.696;10.358;2023-04-30T00:45:16;34.10;;;22.73;;
74523;SDS011;63074;44.696;10.358;2023-04-30T00:47:45;28.27;;;20.20;;
74523;SDS011;63074;44.696;10.358;2023-04-30T00:50:12;32.00;;;20.92;;
74523;SDS011;63074;44.696;10.358;2023-04-30T00:52:40;31.45;;;21.50;;
74523;SDS011;63074;44.696;10.358;2023-04-30T00:55:07;30.90;;;20.88;;
74523;SDS011;63074;44.696;10.358;2023-04-30T00:57:37;31.08;;;22.15;;
74523;SDS011;63074;44.696;10.358;2023-04-30T01:00:05;30.88;;;21.73;;
74523;SDS011;63074;44.696;10.358;2023-04-30T01:02:35;30.65;;;21.60;;
74523;SDS011;63074;44.696;10.358;2023-04-30T01:05:02;31.40;;;21.63;;
74523;SDS011;63074;44.696;10.358;2023-04-30T01:07:29;35.63;;;19.70;;
74523;SDS011;63074;44.696;10.358;2023-04-30T01:09:56;30.55;;;20.98;;
74523;SDS011;63074;44.696;10.358;2023-04-30T01:18:01;31.25;;;21.45;;
74523;SDS011;63074;44.696;10.358;2023-04-30T01:20:43;29.83;;;21.08;;
74523;SDS011;63074;44.696;10.358;2023-04-30T01:26:38;35.30;;;21.70;;
74523;SDS011;63074;44.696;10.358;2023-04-30T01:29:03;32.20;;;20.98;;
74523;SDS011;63074;44.696;10.358;2023-04-30T01:31:30;31.13;;;21.05;;
74523;SDS011;63074;44.696;10.358;2023-04-30T01:33:57;32.90;;;23.05;;
74523;SDS011;63074;44.696;10.358;2023-04-30T01:46:52;33.35;;;22.17;;
74523;SDS011;63074;44.696;10.358;2023-04-30T01:49:38;33.28;;;22.50;;
74523;SDS011;63074;44.696;10.358;2023-04-30T01:52:11;31.98;;;23.00;;
74523;SDS011;63074;44.696;10.358;2023-04-30T01:57:19;31.75;;;21.60;;
74523;SDS011;63074;44.696;10.358;2023-04-30T01:59:52;31.88;;;22.55;;
74523;SDS011;63074;44.696;10.358;2023-04-30T02:02:19;31.38;;;21.52;;
74523;SDS011;63074;44.696;10.358;2023-04-30T02:04:45;32.83;;;22.88;;
74523;SDS011;63074;44.696;10.358;2023-04-30T02:07:12;34.60;;;23.95;;
74523;SDS011;63074;44.696;10.358;2023-04-30T02:09:51;35.50;;;23.05;;
74523;SDS011;63074;44.696;10.358;2023-04-30T02:12:17;34.40;;;23.38;;
74523;SDS011;63074;44.696;10.358;2023-04-30T02:14:43;33.83;;;22.50;;
74523;SDS011;63074;44.696;10.358;2023-04-30T02:17:09;33.72;;;22.20;;
74523;SDS011;63074;44.696;10.358;2023-04-30T02:19:36;31.15;;;22.17;;
74523;SDS011;63074;44.696;10.358;2023-04-30T02:22:02;29.27;;;21.15;;
74523;SDS011;63074;44.696;10.358;2023-04-30T02:24:28;34.15;;;22.13;;
74523;SDS011;63074;44.696;10.358;2023-04-30T02:26:54;33.15;;;22.00;;
74523;SDS011;63074;44.696;10.358;2023-04-30T02:29:20;32.95;;;21.77;;
74523;SDS011;63074;44.696;10.358;2023-04-30T02:31:46;32.42;;;22.40;;
74523;SDS011;63074;44.696;10.358;2023-04-30T02:34:12;33.53;;;22.80;;
74523;SDS011;63074;44.696;10.358;2023-04-30T02:36:39;33.67;;;21.92;;
74523;SDS011;63074;44.696;10.358;2023-04-30T02:39:05;32.33;;;23.02;;
74523;SDS011;63074;44.696;10.358;2023-04-30T02:41:33;32.65;;;22.75;;
74523;SDS011;63074;44.696;10.358;2023-04-30T02:44:00;33.40;;;24.25;;
74523;SDS011;63074;44.696;10.358;2023-04-30T02:46:27;34.60;;;23.50;;
74523;SDS011;63074;44.696;10.358;2023-04-30T02:48:53;33.55;;;23.52;;
74523;SDS011;63074;44.696;10.358;2023-04-30T02:51:19;36.38;;;24.35;;
74523;SDS011;63074;44.696;10.358;2023-04-30T02:53:45;35.65;;;23.80;;
74523;SDS011;63074;44.696;10.358;2023-04-30T02:56:12;34.75;;;24.42;;
74523;SDS011;63074;44.696;10.358;2023-04-30T02:58:38;36.53;;;23.75;;
74523;SDS011;63074;44.696;10.358;2023-04-30T03:01:05;38.00;;;25.15;;
74523;SDS011;63074;44.696;10.358;2023-04-30T03:03:31;33.10;;;23.95;;
74523;SDS011;63074;44.696;10.358;2023-04-30T03:05:57;37.85;;;24.52;;
74523;SDS011;63074;44.696;10.358;2023-04-30T03:08:24;36.00;;;23.17;;
74523;SDS011;63074;44.696;10.358;2023-04-30T03:10:51;33.53;;;23.58;;
74523;SDS011;63074;44.696;10.358;2023-04-30T03:13:17;34.80;;;23.15;;
74523;SDS011;63074;44.696;10.358;2023-04-30T03:15:43;35.50;;;23.17;;
74523;SDS011;63074;44.696;10.358;2023-04-30T03:18:09;35.17;;;24.05;;
74523;SDS011;63074;44.696;10.358;2023-04-30T03:20:36;35.55;;;22.95;;
74523;SDS011;63074;44.696;10.358;2023-04-30T03:23:02;39.53;;;22.98;;
74523;SDS011;63074;44.696;10.358;2023-04-30T03:25:28;35.35;;;23.52;;
74523;SDS011;63074;44.696;10.358;2023-04-30T03:27:54;39.38;;;23.02;;
74523;SDS011;63074;44.696;10.358;2023-04-30T03:30:21;38.05;;;23.60;;
74523;SDS011;63074;44.696;10.358;2023-04-30T03:32:47;40.72;;;23.40;;
74523;SDS011;63074;44.696;10.358;2023-04-30T03:35:13;38.75;;;23.02;;
74523;SDS011;63074;44.696;10.358;2023-04-30T03:37:40;39.80;;;25.05;;
74523;SDS011;63074;44.696;10.358;2023-04-30T03:40:06;37.92;;;24.60;;
74523;SDS011;63074;44.696;10.358;2023-04-30T03:42:33;42.10;;;24.58;;
74523;SDS011;63074;44.696;10.358;2023-04-30T03:44:59;40.00;;;26.08;;
74523;SDS011;63074;44.696;10.358;2023-04-30T03:47:25;41.15;;;24.92;;
74523;SDS011;63074;44.696;10.358;2023-04-30T03:49:51;41.42;;;24.83;;
74523;SDS011;63074;44.696;10.358;2023-04-30T03:52:19;43.70;;;25.50;;
74523;SDS011;63074;44.696;10.358;2023-04-30T03:54:46;41.63;;;24.42;;
74523;SDS011;63074;44.696;10.358;2023-04-30T03:57:12;41.95;;;24.73;;
74523;SDS011;63074;44.696;10.358;2023-04-30T03:59:39;42.95;;;24.17;;
74523;SDS011;63074;44.696;10.358;2023-04-30T04:02:06;47.22;;;25.65;;
74523;SDS011;63074;44.696;10.358;2023-04-30T04:04:32;46.83;;;24.38;;
74523;SDS011;63074;44.696;10.358;2023-04-30T04:06:58;42.90;;;24.60;;
74523;SDS011;63074;44.696;10.358;2023-04-30T04:09:27;41.88;;;24.35;;
74523;SDS011;63074;44.696;10.358;2023-04-30T04:11:53;43.55;;;24.35;;
74523;SDS011;63074;44.696;10.358;2023-04-30T04:14:19;43.13;;;24.75;;
74523;SDS011;63074;44.696;10.358;2023-04-30T04:16:46;41.35;;;24.27;;
74523;SDS011;63074;44.696;10.358;2023-04-30T04:19:12;44.15;;;25.15;;
74523;SDS011;63074;44.696;10.358;2023-04-30T04:21:38;42.25;;;25.27;;
74523;SDS011;63074;44.696;10.358;2023-04-30T04:24:04;44.50;;;24.95;;
74523;SDS011;63074;44.696;10.358;2023-04-30T04:26:32;47.80;;;25.55;;
74523;SDS011;63074;44.696;10.358;2023-04-30T04:29:02;49.17;;;26.05;;
74523;SDS011;63074;44.696;10.358;2023-04-30T04:31:29;46.60;;;27.17;;
74523;SDS011;63074;44.696;10.358;2023-04-30T04:33:57;46.97;;;26.40;;
74523;SDS011;63074;44.696;10.358;2023-04-30T04:36:25;50.67;;;26.17;;
74523;SDS011;63074;44.696;10.358;2023-04-30T04:38:52;46.05;;;24.75;;
74523;SDS011;63074;44.696;10.358;2023-04-30T04:41:21;45.20;;;25.90;;
74523;SDS011;63074;44.696;10.358;2023-04-30T04:43:48;45.60;;;25.65;;
74523;SDS011;63074;44.696;10.358;2023-04-30T04:46:14;48.80;;;25.83;;
74523;SDS011;63074;44.696;10.358;2023-04-30T04:48:41;48.95;;;25.35;;
74523;SDS011;63074;44.696;10.358;2023-04-30T04:51:08;53.17;;;25.25;;
74523;SDS011;63074;44.696;10.358;2023-04-30T04:53:34;46.15;;;24.48;;
74523;SDS011;63074;44.696;10.358;2023-04-30T04:56:01;46.45;;;25.05;;
74523;SDS011;63074;44.696;10.358;2023-04-30T04:58:27;49.40;;;26.05;;
74523;SDS011;63074;44.696;10.358;2023-04-30T05:00:53;49.20;;;25.52;;
74523;SDS011;63074;44.696;10.358;2023-04-30T05:03:21;63.00;;;25.80;;
74523;SDS011;63074;44.696;10.358;2023-04-30T05:05:47;60.63;;;25.00;;
74523;SDS011;63074;44.696;10.358;2023-04-30T05:08:13;50.33;;;23.95;;
74523;SDS011;63074;44.696;10.358;2023-04-30T05:10:40;49.72;;;23.10;;
74523;SDS011;63074;44.696;10.358;2023-04-30T05:13:06;37.53;;;21.40;;
74523;SDS011;63074;44.696;10.358;2023-04-30T05:15:32;33.78;;;20.85;;
74523;SDS011;63074;44.696;10.358;2023-04-30T05:17:58;42.38;;;22.52;;
74523;SDS011;63074;44.696;10.358;2023-04-30T05:20:25;42.25;;;22.42;;
74523;SDS011;63074;44.696;10.358;2023-04-30T05:22:51;47.28;;;24.08;;
74523;SDS011;63074;44.696;10.358;2023-04-30T05:25:17;36.28;;;23.25;;
74523;SDS011;63074;44.696;10.358;2023-04-30T05:27:43;38.97;;;24.23;;
74523;SDS011;63074;44.696;10.358;2023-04-30T05:30:10;37.35;;;21.23;;
74523;SDS011;63074;44.696;10.358;2023-04-30T05:32:36;46.53;;;21.80;;
74523;SDS011;63074;44.696;10.358;2023-04-30T05:35:02;39.35;;;22.05;;
74523;SDS011;63074;44.696;10.358;2023-04-30T05:37:29;34.63;;;22.30;;
74523;SDS011;63074;44.696;10.358;2023-04-30T05:39:55;37.25;;;21.17;;
74523;SDS011;63074;44.696;10.358;2023-04-30T05:42:21;36.75;;;21.83;;
74523;SDS011;63074;44.696;10.358;2023-04-30T05:44:47;36.83;;;21.55;;
74523;SDS011;63074;44.696;10.358;2023-04-30T05:47:14;33.33;;;20.55;;
74523;SDS011;63074;44.696;10.358;2023-04-30T05:49:40;32.40;;;19.30;;
74523;SDS011;63074;44.696;10.358;2023-04-30T05:52:06;32.97;;;19.15;;
74523;SDS011;63074;44.696;10.358;2023-04-30T05:54:32;32.40;;;18.90;;
74523;SDS011;63074;44.696;10.358;2023-04-30T05:56:59;31.90;;;18.75;;
74523;SDS011;63074;44.696;10.358;2023-04-30T05:59:25;31.20;;;18.05;;
74523;SDS011;63074;44.696;10.358;2023-04-30T06:01:51;31.55;;;18.77;;
74523;SDS011;63074;44.696;10.358;2023-04-30T06:04:17;29.20;;;18.00;;
74523;SDS011;63074;44.696;10.358;2023-04-30T06:06:43;31.40;;;17.58;;
74523;SDS011;63074;44.696;10.358;2023-04-30T06:09:10;30.40;;;17.00;;
74523;SDS011;63074;44.696;10.358;2023-04-30T06:11:36;31.05;;;17.50;;
74523;SDS011;63074;44.696;10.358;2023-04-30T06:14:02;30.20;;;18.58;;
74523;SDS011;63074;44.696;10.358;2023-04-30T06:16:29;27.48;;;16.17;;
74523;SDS011;63074;44.696;10.358;2023-04-30T06:18:55;31.08;;;16.33;;
74523;SDS011;63074;44.696;10.358;2023-04-30T06:21:21;31.10;;;16.25;;
74523;SDS011;63074;44.696;10.358;2023-04-30T06:23:51;26.33;;;15.60;;
74523;SDS011;63074;44.696;10.358;2023-04-30T06:26:20;30.92;;;16.30;;
74523;SDS011;63074;44.696;10.358;2023-04-30T06:28:46;26.55;;;14.55;;
74523;SDS011;63074;44.696;10.358;2023-04-30T06:31:12;28.48;;;15.77;;
74523;SDS011;63074;44.696;10.358;2023-04-30T06:33:39;28.30;;;16.13;;
74523;SDS011;63074;44.696;10.358;2023-04-30T06:36:05;28.13;;;15.82;;
74523;SDS011;63074;44.696;10.358;2023-04-30T06:38:31;28.25;;;16.60;;
74523;SDS011;63074;44.696;10.358;2023-04-30T06:40:57;29.63;;;15.50;;
74523;SDS011;63074;44.696;10.358;2023-04-30T06:43:23;55.17;;;38.25;;
74523;SDS011;63074;44.696;10.358;2023-04-30T06:45:50;33.95;;;22.00;;
74523;SDS011;63074;44.696;10.358;2023-04-30T06:48:16;39.22;;;26.20;;
74523;SDS011;63074;44.696;10.358;2023-04-30T06:50:42;35.47;;;23.23;;
74523;SDS011;63074;44.696;10.358;2023-04-30T06:53:12;28.55;;;15.13;;
74523;SDS011;63074;44.696;10.358;2023-04-30T06:55:39;30.67;;;16.35;;
74523;SDS011;63074;44.696;10.358;2023-04-30T06:58:05;36.38;;;22.05;;
74523;SDS011;63074;44.696;10.358;2023-04-30T07:00:32;32.28;;;20.50;;
74523;SDS011;63074;44.696;10.358;2023-04-30T07:02:59;30.48;;;16.65;;
74523;SDS011;63074;44.696;10.358;2023-04-30T07:05:30;31.05;;;16.60;;
74523;SDS011;63074;44.696;10.358;2023-04-30T07:07:57;30.10;;;15.55;;
74523;SDS011;63074;44.696;10.358;2023-04-30T07:10:27;30.70;;;15.68;;
74523;SDS011;63074;44.696;10.358;2023-04-30T07:12:54;31.30;;;16.45;;
74523;SDS011;63074;44.696;10.358;2023-04-30T07:15:20;28.42;;;16.52;;
74523;SDS011;63074;44.696;10.358;2023-04-30T07:17:46;27.88;;;16.33;;
74523;SDS011;63074;44.696;10.358;2023-04-30T07:20:13;28.73;;;15.70;;
74523;SDS011;63074;44.696;10.358;2023-04-30T07:22:39;30.02;;;16.73;;
74523;SDS011;63074;44.696;10.358;2023-04-30T07:25:08;29.58;;;16.15;;
74523;SDS011;63074;44.696;10.358;2023-04-30T07:27:35;30.08;;;17.58;;
74523;SDS011;63074;44.696;10.358;2023-04-30T07:30:02;27.77;;;15.70;;
74523;SDS011;63074;44.696;10.358;2023-04-30T07:32:29;26.27;;;15.13;;
74523;SDS011;63074;44.696;10.358;2023-04-30T07:34:55;24.42;;;13.75;;
74523;SDS011;63074;44.696;10.358;2023-04-30T07:37:21;26.02;;;15.68;;
74523;SDS011;63074;44.696;10.358;2023-04-30T07:39:48;25.83;;;15.02;;
74523;SDS011;63074;44.696;10.358;2023-04-30T07:42:14;26.25;;;16.17;;
74523;SDS011;63074;44.696;10.358;2023-04-30T07:44:40;26.20;;;14.95;;
74523;SDS011;63074;44.696;10.358;2023-04-30T07:47:06;28.52;;;15.15;;
74523;SDS011;63074;44.696;10.358;2023-04-30T07:49:33;27.75;;;14.18;;
74523;SDS011;63074;44.696;10.358;2023-04-30T07:52:00;26.25;;;14.95;;
74523;SDS011;63074;44.696;10.358;2023-04-30T07:54:26;23.20;;;14.13;;
74523;SDS011;63074;44.696;10.358;2023-04-30T07:56:52;32.10;;;16.15;;
74523;SDS011;63074;44.696;10.358;2023-04-30T07:59:19;25.77;;;13.70;;
74523;SDS011;63074;44.696;10.358;2023-04-30T08:01:45;27.55;;;14.65;;
74523;SDS011;63074;44.696;10.358;2023-04-30T08:04:11;24.00;;;13.77;;
74523;SDS011;63074;44.696;10.358;2023-04-30T08:06:37;24.75;;;14.45;;
74523;SDS011;63074;44.696;10.358;2023-04-30T08:09:04;27.83;;;14.77;;
74523;SDS011;63074;44.696;10.358;2023-04-30T08:11:30;24.45;;;15.15;;
74523;SDS011;63074;44.696;10.358;2023-04-30T08:13:56;25.02;;;15.40;;
74523;SDS011;63074;44.696;10.358;2023-04-30T08:16:22;23.27;;;14.20;;
74523;SDS011;63074;44.696;10.358;2023-04-30T08:18:48;25.63;;;14.95;;
74523;SDS011;63074;44.696;10.358;2023-04-30T08:21:15;24.77;;;14.70;;
74523;SDS011;63074;44.696;10.358;2023-04-30T08:23:42;22.77;;;14.23;;
74523;SDS011;63074;44.696;10.358;2023-04-30T08:26:08;24.48;;;14.73;;
74523;SDS011;63074;44.696;10.358;2023-04-30T08:28:34;25.35;;;14.43;;
74523;SDS011;63074;44.696;10.358;2023-04-30T08:31:01;20.92;;;14.13;;
74523;SDS011;63074;44.696;10.358;2023-04-30T08:33:27;21.92;;;13.68;;
74523;SDS011;63074;44.696;10.358;2023-04-30T08:35:53;24.35;;;12.82;;
74523;SDS011;63074;44.696;10.358;2023-04-30T08:38:19;19.23;;;11.88;;
74523;SDS011;63074;44.696;10.358;2023-04-30T08:40:47;20.48;;;12.10;;
74523;SDS011;63074;44.696;10.358;2023-04-30T08:43:28;19.50;;;11.98;;
74523;SDS011;63074;44.696;10.358;2023-04-30T08:45:55;18.02;;;11.07;;
74523;SDS011;63074;44.696;10.358;2023-04-30T08:48:22;21.55;;;11.57;;
74523;SDS011;63074;44.696;10.358;2023-04-30T08:50:50;18.15;;;11.60;;
74523;SDS011;63074;44.696;10.358;2023-04-30T08:53:17;17.48;;;10.95;;
74523;SDS011;63074;44.696;10.358;2023-04-30T08:55:45;17.83;;;11.15;;
74523;SDS011;63074;44.696;10.358;2023-04-30T08:58:12;19.33;;;11.57;;
74523;SDS011;63074;44.696;10.358;2023-04-30T09:00:39;14.52;;;9.40;;
74523;SDS011;63074;44.696;10.358;2023-04-30T09:03:06;16.08;;;9.85;;
74523;SDS011;63074;44.696;10.358;2023-04-30T09:05:32;15.75;;;9.68;;
74523;SDS011;63074;44.696;10.358;2023-04-30T09:08:00;13.60;;;8.45;;
74523;SDS011;63074;44.696;10.358;2023-04-30T09:10:26;14.48;;;9.30;;
74523;SDS011;63074;44.696;10.358;2023-04-30T09:13:04;14.05;;;9.18;;
74523;SDS011;63074;44.696;10.358;2023-04-30T09:15:32;14.88;;;9.27;;
74523;SDS011;63074;44.696;10.358;2023-04-30T09:20:54;14.07;;;9.02;;
74523;SDS011;63074;44.696;10.358;2023-04-30T09:23:20;14.77;;;9.85;;
74523;SDS011;63074;44.696;10.358;2023-04-30T09:25:46;14.65;;;9.52;;
74523;SDS011;63074;44.696;10.358;2023-04-30T09:28:13;13.68;;;9.18;;
74523;SDS011;63074;44.696;10.358;2023-04-30T09:30:40;12.85;;;8.73;;
74523;SDS011;63074;44.696;10.358;2023-04-30T09:33:07;12.23;;;7.80;;
74523;SDS011;63074;44.696;10.358;2023-04-30T09:35:34;11.45;;;8.20;;
74523;SDS011;63074;44.696;10.358;2023-04-30T09:38:23;14.73;;;8.65;;
74523;SDS011;63074;44.696;10.358;2023-04-30T09:40:56;16.90;;;9.00;;
74523;SDS011;63074;44.696;10.358;2023-04-30T09:43:23;12.63;;;8.23;;
74523;SDS011;63074;44.696;10.358;2023-04-30T09:45:50;12.07;;;8.15;;
74523;SDS011;63074;44.696;10.358;2023-04-30T09:48:21;13.25;;;9.48;;
74523;SDS011;63074;44.696;10.358;2023-04-30T09:50:48;13.65;;;8.98;;
74523;SDS011;63074;44.696;10.358;2023-04-30T09:53:15;13.57;;;8.80;;
74523;SDS011;63074;44.696;10.358;2023-04-30T09:55:43;13.13;;;8.30;;
74523;SDS011;63074;44.696;10.358;2023-04-30T09:58:14;13.82;;;8.75;;
74523;SDS011;63074;44.696;10.358;2023-04-30T10:00:42;14.40;;;8.40;;
74523;SDS011;63074;44.696;10.358;2023-04-30T10:03:12;13.60;;;8.02;;
74523;SDS011;63074;44.696;10.358;2023-04-30T10:05:40;14.90;;;8.27;;
74523;SDS011;63074;44.696;10.358;2023-04-30T10:08:24;13.90;;;8.57;;
74523;SDS011;63074;44.696;10.358;2023-04-30T10:11:02;13.55;;;8.57;;
74523;SDS011;63074;44.696;10.358;2023-04-30T10:13:30;12.98;;;9.23;;
74523;SDS011;63074;44.696;10.358;2023-04-30T10:16:08;12.80;;;8.82;;
74523;SDS011;63074;44.696;10.358;2023-04-30T10:18:45;13.95;;;9.48;;
74523;SDS011;63074;44.696;10.358;2023-04-30T10:21:16;14.13;;;9.15;;
74523;SDS011;63074;44.696;10.358;2023-04-30T10:23:45;14.27;;;9.85;;
74523;SDS011;63074;44.696;10.358;2023-04-30T10:26:12;15.65;;;10.55;;
74523;SDS011;63074;44.696;10.358;2023-04-30T10:28:41;15.48;;;10.85;;
74523;SDS011;63074;44.696;10.358;2023-04-30T10:31:08;14.35;;;10.38;;
74523;SDS011;63074;44.696;10.358;2023-04-30T10:39:08;14.00;;;10.18;;
74523;SDS011;63074;44.696;10.358;2023-04-30T10:41:37;14.73;;;10.35;;
74523;SDS011;63074;44.696;10.358;2023-04-30T10:44:05;17.30;;;12.05;;
74523;SDS011;63074;44.696;10.358;2023-04-30T10:46:35;15.75;;;11.52;;
74523;SDS011;63074;44.696;10.358;2023-04-30T10:54:28;14.13;;;9.45;;
74523;SDS011;63074;44.696;10.358;2023-04-30T10:57:12;13.27;;;9.80;;
74523;SDS011;63074;44.696;10.358;2023-04-30T10:59:42;15.50;;;9.32;;
74523;SDS011;63074;44.696;10.358;2023-04-30T11:02:15;14.55;;;9.05;;
74523;SDS011;63074;44.696;10.358;2023-04-30T11:07:32;14.32;;;9.55;;
74523;SDS011;63074;44.696;10.358;2023-04-30T11:09:59;13.88;;;9.88;;
74523;SDS011;63074;44.696;10.358;2023-04-30T11:12:26;13.85;;;9.55;;
74523;SDS011;63074;44.696;10.358;2023-04-30T11:15:06;14.65;;;10.65;;
74523;SDS011;63074;44.696;10.358;2023-04-30T11:17:38;14.90;;;10.13;;
74523;SDS011;63074;44.696;10.358;2023-04-30T11:20:05;15.48;;;10.52;;
74523;SDS011;63074;44.696;10.358;2023-04-30T11:22:36;13.43;;;9.82;;
74523;SDS011;63074;44.696;10.358;2023-04-30T11:27:34;15.50;;;9.93;;
74523;SDS011;63074;44.696;10.358;2023-04-30T11:30:02;15.02;;;9.35;;
74523;SDS011;63074;44.696;10.358;2023-04-30T11:32:35;12.57;;;9.93;;
74523;SDS011;63074;44.696;10.358;2023-04-30T11:35:02;12.90;;;9.02;;
74523;SDS011;63074;44.696;10.358;2023-04-30T11:40:01;15.35;;;9.93;;
74523;SDS011;63074;44.696;10.358;2023-04-30T11:42:32;12.75;;;8.48;;
74523;SDS011;63074;44.696;10.358;2023-04-30T11:45:05;12.00;;;7.63;;
74523;SDS011;63074;44.696;10.358;2023-04-30T11:47:53;12.73;;;7.80;;
74523;SDS011;63074;44.696;10.358;2023-04-30T11:50:21;10.32;;;7.18;;
74523;SDS011;63074;44.696;10.358;2023-04-30T11:52:54;11.52;;;7.35;;
74523;SDS011;63074;44.696;10.358;2023-04-30T11:55:22;11.73;;;6.75;;
74523;SDS011;63074;44.696;10.358;2023-04-30T11:57:50;9.18;;;6.93;;
74523;SDS011;63074;44.696;10.358;2023-04-30T12:02:54;10.40;;;6.40;;
74523;SDS011;63074;44.696;10.358;2023-04-30T12:05:21;13.68;;;7.70;;
74523;SDS011;63074;44.696;10.358;2023-04-30T12:07:55;10.10;;;6.43;;
74523;SDS011;63074;44.696;10.358;2023-04-30T12:10:24;10.82;;;6.90;;
74523;SDS011;63074;44.696;10.358;2023-04-30T12:12:51;9.73;;;6.18;;
74523;SDS011;63074;44.696;10.358;2023-04-30T12:15:19;8.05;;;5.95;;
74523;SDS011;63074;44.696;10.358;2023-04-30T12:17:56;9.02;;;6.78;;
74523;SDS011;63074;44.696;10.358;2023-04-30T12:20:24;9.25;;;6.30;;
74523;SDS011;63074;44.696;10.358;2023-04-30T12:22:52;12.20;;;7.18;;
74523;SDS011;63074;44.696;10.358;2023-04-30T12:25:20;10.23;;;7.18;;
74523;SDS011;63074;44.696;10.358;2023-04-30T12:27:47;10.88;;;6.88;;
74523;SDS011;63074;44.696;10.358;2023-04-30T12:30:18;10.10;;;7.05;;
74523;SDS011;63074;44.696;10.358;2023-04-30T12:32:48;12.07;;;7.57;;
74523;SDS011;63074;44.696;10.358;2023-04-30T12:35:16;10.52;;;6.43;;
74523;SDS011;63074;44.696;10.358;2023-04-30T12:37:45;10.32;;;6.97;;
74523;SDS011;63074;44.696;10.358;2023-04-30T12:42:43;11.32;;;6.63;;
74523;SDS011;63074;44.696;10.358;2023-04-30T12:45:11;9.35;;;7.45;;
74523;SDS011;63074;44.696;10.358;2023-04-30T12:47:41;10.32;;;6.95;;
74523;SDS011;63074;44.696;10.358;2023-04-30T12:52:35;9.68;;;6.97;;
74523;SDS011;63074;44.696;10.358;2023-04-30T12:55:17;7.95;;;6.35;;
74523;SDS011;63074;44.696;10.358;2023-04-30T13:03:12;10.65;;;7.70;;
74523;SDS011;63074;44.696;10.358;2023-04-30T13:05:39;8.85;;;6.68;;
74523;SDS011;63074;44.696;10.358;2023-04-30T13:08:06;11.65;;;7.63;;
74523;SDS011;63074;44.696;10.358;2023-04-30T13:10:33;9.43;;;6.82;;
74523;SDS011;63074;44.696;10.358;2023-04-30T13:12:59;8.15;;;6.53;;
74523;SDS011;63074;44.696;10.358;2023-04-30T13:15:26;8.90;;;6.70;;
74523;SDS011;63074;44.696;10.358;2023-04-30T13:17:52;9.38;;;6.38;;
74523;SDS011;63074;44.696;10.358;2023-04-30T13:20:18;11.68;;;7.22;;
74523;SDS011;63074;44.696;10.358;2023-04-30T13:22:44;8.38;;;6.43;;
74523;SDS011;63074;44.696;10.358;2023-04-30T13:25:10;9.88;;;6.70;;
74523;SDS011;63074;44.696;10.358;2023-04-30T13:27:36;10.68;;;7.82;;
74523;SDS011;63074;44.696;10.358;2023-04-30T13:30:04;12.05;;;7.20;;
74523;SDS011;63074;44.696;10.358;2023-04-30T13:32:30;8.43;;;7.03;;
74523;SDS011;63074;44.696;10.358;2023-04-30T13:34:56;9.48;;;7.18;;
74523;SDS011;63074;44.696;10.358;2023-04-30T13:37:23;10.18;;;6.75;;
74523;SDS011;63074;44.696;10.358;2023-04-30T13:39:49;8.55;;;7.22;;
74523;SDS011;63074;44.696;10.358;2023-04-30T13:42:15;9.55;;;6.78;;
74523;SDS011;63074;44.696;10.358;2023-04-30T13:44:41;7.22;;;5.47;;
74523;SDS011;63074;44.696;10.358;2023-04-30T13:47:09;7.25;;;5.00;;
74523;SDS011;63074;44.696;10.358;2023-04-30T13:49:36;6.88;;;4.97;;
74523;SDS011;63074;44.696;10.358;2023-04-30T13:52:02;5.50;;;4.13;;
74523;SDS011;63074;44.696;10.358;2023-04-30T13:54:29;5.75;;;3.85;;
74523;SDS011;63074;44.696;10.358;2023-04-30T13:56:55;6.70;;;4.40;;
74523;SDS011;63074;44.696;10.358;2023-04-30T13:59:23;6.18;;;4.40;;
74523;SDS011;63074;44.696;10.358;2023-04-30T14:01:49;6.30;;;4.55;;
74523;SDS011;63074;44.696;10.358;2023-04-30T14:04:16;5.45;;;4.93;;
74523;SDS011;63074;44.696;10.358;2023-04-30T14:06:42;6.55;;;4.63;;
74523;SDS011;63074;44.696;10.358;2023-04-30T14:09:09;7.90;;;4.93;;
74523;SDS011;63074;44.696;10.358;2023-04-30T14:11:35;6.38;;;4.93;;
74523;SDS011;63074;44.696;10.358;2023-04-30T14:14:02;7.88;;;5.70;;
74523;SDS011;63074;44.696;10.358;2023-04-30T14:16:29;7.10;;;5.68;;
74523;SDS011;63074;44.696;10.358;2023-04-30T14:18:55;6.68;;;5.88;;
74523;SDS011;63074;44.696;10.358;2023-04-30T14:21:22;9.02;;;5.40;;
74523;SDS011;63074;44.696;10.358;2023-04-30T14:23:48;7.85;;;5.80;;
74523;SDS011;63074;44.696;10.358;2023-04-30T14:26:16;6.88;;;4.80;;
74523;SDS011;63074;44.696;10.358;2023-04-30T14:28:42;7.65;;;5.10;;
74523;SDS011;63074;44.696;10.358;2023-04-30T14:31:08;7.53;;;5.28;;
74523;SDS011;63074;44.696;10.358;2023-04-30T14:33:35;8.63;;;5.70;;
74523;SDS011;63074;44.696;10.358;2023-04-30T14:36:01;7.30;;;4.80;;
74523;SDS011;63074;44.696;10.358;2023-04-30T14:38:27;6.70;;;4.68;;
74523;SDS011;63074;44.696;10.358;2023-04-30T14:40:53;6.50;;;5.63;;
74523;SDS011;63074;44.696;10.358;2023-04-30T14:43:20;6.53;;;4.82;;
74523;SDS011;63074;44.696;10.358;2023-04-30T14:45:46;6.15;;;5.55;;
74523;SDS011;63074;44.696;10.358;2023-04-30T14:48:12;7.70;;;5.30;;
74523;SDS011;63074;44.696;10.358;2023-04-30T14:50:38;7.10;;;5.82;;
74523;SDS011;63074;44.696;10.358;2023-04-30T14:53:04;8.20;;;4.88;;
74523;SDS011;63074;44.696;10.358;2023-04-30T14:55:31;7.97;;;5.60;;
74523;SDS011;63074;44.696;10.358;2023-04-30T14:57:58;7.47;;;5.50;;
74523;SDS011;63074;44.696;10.358;2023-04-30T15:00:24;8.05;;;5.85;;
74523;SDS011;63074;44.696;10.358;2023-04-30T15:02:51;6.93;;;5.07;;
74523;SDS011;63074;44.696;10.358;2023-04-30T15:05:18;7.20;;;6.30;;
74523;SDS011;63074;44.696;10.358;2023-04-30T15:07:45;6.32;;;5.40;;
74523;SDS011;63074;44.696;10.358;2023-04-30T15:10:11;7.35;;;5.78;;
74523;SDS011;63074;44.696;10.358;2023-04-30T15:12:37;6.60;;;5.22;;
74523;SDS011;63074;44.696;10.358;2023-04-30T15:15:04;9.25;;;6.25;;